createdAt,value
2023-07-23T00:00:13.160Z,5.93
2023-07-23T00:01:15.148Z,5.63
2023-07-23T00:02:17.103Z,4.98
2023-07-23T00:03:19.195Z,5.65
2023-07-23T00:04:21.388Z,5.85
2023-07-23T00:05:23.436Z,4.99
2023-07-23T00:06:25.292Z,5.11
2023-07-23T00:07:27.049Z,4.99
2023-07-23T00:08:28.891Z,5.51
2023-07-23T00:09:30.739Z,5.94
2023-07-23T00:10:32.601Z,5.41
2023-07-23T00:11:34.542Z,6.37
2023-07-23T00:12:36.489Z,5.24
2023-07-23T00:13:38.334Z,5.55
2023-07-23T00:14:40.205Z,5.59
2023-07-23T00:15:42.141Z,6.05
2023-07-23T00:16:44.461Z,5.92
2023-07-23T00:17:46.409Z,5.37
2023-07-23T00:18:48.318Z,5.69
2023-07-23T00:19:50.357Z,5.39
2023-07-23T00:20:52.320Z,5.55
2023-07-23T00:21:54.283Z,5.53
2023-07-23T00:22:56.321Z,5.31
2023-07-23T00:23:58.269Z,5.70
2023-07-23T00:25:00.130Z,5.69
2023-07-23T00:26:02.489Z,5.31
2023-07-23T00:27:04.256Z,5.53
2023-07-23T00:28:06.080Z,5.67
2023-07-23T00:29:08.028Z,5.61
2023-07-23T00:30:10.190Z,5.59
2023-07-23T00:31:12.179Z,5.40
2023-07-23T00:32:13.890Z,5.40
2023-07-23T00:33:15.658Z,5.37
2023-07-23T00:34:17.492Z,5.27
2023-07-23T00:35:19.334Z,5.04
2023-07-23T00:36:21.306Z,5.36
2023-07-23T00:37:23.344Z,5.40
2023-07-23T00:38:25.299Z,5.54
2023-07-23T00:39:27.560Z,5.69
2023-07-23T00:40:30.063Z,4.98
2023-07-23T00:41:32.071Z,5.99
2023-07-23T00:42:34.041Z,5.72
2023-07-23T00:43:35.987Z,5.35
2023-07-23T00:44:38.033Z,5.79
2023-07-23T00:45:40.078Z,5.43
2023-07-23T00:46:42.148Z,5.46
2023-07-23T00:47:44.126Z,5.41
2023-07-23T00:48:46.150Z,5.81
2023-07-23T00:49:48.201Z,5.50
2023-07-23T00:50:50.174Z,5.64
2023-07-23T00:51:52.219Z,6.14
2023-07-23T00:52:54.164Z,5.74
2023-07-23T00:53:56.014Z,6.10
2023-07-23T00:54:57.865Z,6.24
2023-07-23T00:55:59.720Z,5.73
2023-07-23T00:57:01.785Z,5.75
2023-07-23T00:58:03.720Z,5.93
2023-07-23T00:59:05.485Z,6.36
2023-07-23T01:00:07.628Z,5.83
2023-07-23T01:01:09.714Z,5.43
2023-07-23T01:02:11.743Z,5.85
2023-07-23T01:03:13.715Z,5.88
2023-07-23T01:04:15.644Z,6.34
2023-07-23T01:05:17.691Z,6.21
2023-07-23T01:06:19.649Z,6.16
2023-07-23T01:07:21.499Z,6.32
2023-07-23T01:08:23.452Z,6.09
2023-07-23T01:09:25.299Z,6.29
2023-07-23T01:10:27.156Z,5.88
2023-07-23T01:11:29.300Z,6.47
2023-07-23T01:12:31.364Z,6.06
2023-07-23T01:13:33.318Z,6.63
2023-07-23T01:14:35.172Z,5.64
2023-07-23T01:15:37.136Z,5.87
2023-07-23T01:16:39.185Z,5.83
2023-07-23T01:17:41.146Z,5.85
2023-07-23T01:18:43.222Z,5.73
2023-07-23T01:19:45.140Z,6.08
2023-07-23T01:20:46.979Z,5.69
2023-07-23T01:21:49.036Z,6.04
2023-07-23T01:22:50.990Z,6.06
2023-07-23T01:23:52.941Z,6.20
2023-07-23T01:24:54.792Z,6.28
2023-07-23T01:25:56.535Z,6.84
2023-07-23T01:26:58.492Z,5.81
2023-07-23T01:28:00.450Z,6.91
2023-07-23T01:29:02.418Z,6.66
2023-07-23T01:30:04.556Z,6.24
2023-07-23T01:31:06.542Z,5.98
2023-07-23T01:32:08.555Z,5.87
2023-07-23T01:33:10.642Z,5.85
2023-07-23T01:34:12.466Z,5.91
2023-07-23T01:35:14.430Z,6.41
2023-07-23T01:36:16.576Z,6.42
2023-07-23T01:37:18.522Z,6.33
2023-07-23T01:38:20.482Z,6.77
2023-07-23T01:39:22.438Z,6.35
2023-07-23T01:40:24.489Z,6.19
2023-07-23T01:41:26.916Z,6.38
2023-07-23T01:42:29.131Z,6.89
2023-07-23T01:43:30.961Z,6.41
2023-07-23T01:44:32.811Z,6.50
2023-07-23T01:45:34.663Z,7.12
2023-07-23T01:46:36.758Z,6.35
2023-07-23T01:47:39.000Z,6.59
2023-07-23T01:48:41.032Z,6.60
2023-07-23T01:49:42.979Z,6.64
2023-07-23T01:50:45.036Z,6.76
2023-07-23T01:51:47.013Z,6.31
2023-07-23T01:52:48.944Z,6.23
2023-07-23T01:53:51.098Z,6.75
2023-07-23T01:54:52.945Z,7.10
2023-07-23T01:55:54.901Z,6.71
2023-07-23T01:56:56.858Z,6.55
2023-07-23T01:57:58.815Z,6.61
2023-07-23T01:59:00.779Z,5.97
2023-07-23T02:00:02.812Z,6.47
2023-07-23T02:01:04.812Z,6.87
2023-07-23T02:02:06.836Z,6.48
2023-07-23T02:03:08.923Z,6.64
2023-07-23T02:04:10.989Z,6.69
2023-07-23T02:05:12.990Z,6.27
2023-07-23T02:06:15.345Z,6.57
2023-07-23T02:07:17.296Z,6.10
2023-07-23T02:08:19.250Z,6.53
2023-07-23T02:09:21.012Z,6.25
2023-07-23T02:10:22.970Z,6.87
2023-07-23T02:11:24.806Z,6.51
2023-07-23T02:12:26.653Z,6.59
2023-07-23T02:13:28.606Z,6.94
2023-07-23T02:14:30.874Z,6.80
2023-07-23T02:15:32.720Z,6.83
2023-07-23T02:16:34.675Z,6.61
2023-07-23T02:17:36.746Z,6.55
2023-07-23T02:18:38.774Z,6.65
2023-07-23T02:19:40.826Z,6.71
2023-07-23T02:20:42.783Z,6.67
2023-07-23T02:21:44.741Z,7.32
2023-07-23T02:22:46.583Z,6.63
2023-07-23T02:23:48.433Z,7.02
2023-07-23T02:24:50.401Z,6.59
2023-07-23T02:25:52.443Z,7.11
2023-07-23T02:26:54.289Z,6.95
2023-07-23T02:27:56.243Z,7.37
2023-07-23T02:28:58.192Z,6.81
2023-07-23T02:30:00.045Z,6.75
2023-07-23T02:31:02.093Z,6.90
2023-07-23T02:32:04.077Z,6.71
2023-07-23T02:33:06.089Z,6.59
2023-07-23T02:34:08.062Z,7.50
2023-07-23T02:35:09.817Z,7.30
2023-07-23T02:36:12.173Z,6.91
2023-07-23T02:37:14.121Z,7.10
2023-07-23T02:38:15.981Z,6.41
2023-07-23T02:39:17.925Z,7.45
2023-07-23T02:40:19.944Z,6.99
2023-07-23T02:41:21.830Z,7.61
2023-07-23T02:42:25.010Z,6.91
2023-07-23T02:43:27.397Z,6.97
2023-07-23T02:44:29.335Z,7.03
2023-07-23T02:45:31.281Z,6.96
2023-07-23T02:46:33.285Z,7.52
2023-07-23T02:47:35.346Z,6.93
2023-07-23T02:48:37.238Z,7.93
2023-07-23T02:49:39.306Z,7.18
2023-07-23T02:50:41.352Z,7.53
2023-07-23T02:51:43.095Z,7.46
2023-07-23T02:52:44.943Z,7.14
2023-07-23T02:53:46.794Z,7.29
2023-07-23T02:54:48.641Z,7.15
2023-07-23T02:55:50.610Z,6.92
2023-07-23T02:56:52.656Z,6.99
2023-07-23T02:57:54.709Z,7.00
2023-07-23T02:58:56.659Z,7.19
2023-07-23T02:59:58.616Z,7.09
2023-07-23T03:01:00.558Z,7.41
2023-07-23T03:02:02.446Z,7.03
2023-07-23T03:03:04.518Z,6.79
2023-07-23T03:04:06.525Z,6.87
2023-07-23T03:05:08.372Z,7.14
2023-07-23T03:06:10.840Z,7.28
2023-07-23T03:07:12.785Z,7.22
2023-07-23T03:08:14.676Z,6.72
2023-07-23T03:09:16.955Z,6.91
2023-07-23T03:10:19.071Z,6.79
2023-07-23T03:11:21.012Z,7.11
2023-07-23T03:12:22.759Z,7.16
2023-07-23T03:13:24.654Z,6.73
2023-07-23T03:14:26.552Z,6.39
2023-07-23T03:15:28.411Z,7.14
2023-07-23T03:16:30.425Z,7.16
2023-07-23T03:17:32.432Z,7.62
2023-07-23T03:18:34.370Z,7.17
2023-07-23T03:19:36.330Z,7.23
2023-07-23T03:20:38.378Z,7.87
2023-07-23T03:21:40.365Z,7.56
2023-07-23T03:22:42.396Z,7.14
2023-07-23T03:23:44.344Z,7.47
2023-07-23T03:24:46.340Z,6.66
2023-07-23T03:25:48.244Z,8.04
2023-07-23T03:26:50.204Z,7.29
2023-07-23T03:27:52.148Z,7.48
2023-07-23T03:28:54.110Z,6.78
2023-07-23T03:29:56.161Z,7.81
2023-07-23T03:30:58.207Z,8.13
2023-07-23T03:32:00.091Z,8.23
2023-07-23T03:33:02.162Z,6.68
2023-07-23T03:34:03.967Z,7.85
2023-07-23T03:35:05.920Z,7.62
2023-07-23T03:36:07.868Z,6.79
2023-07-23T03:37:09.730Z,7.54
2023-07-23T03:38:11.674Z,7.53
2023-07-23T03:39:13.520Z,7.96
2023-07-23T03:40:15.685Z,8.01
2023-07-23T03:41:17.626Z,7.27
2023-07-23T03:42:19.682Z,7.21
2023-07-23T03:43:21.531Z,7.09
2023-07-23T03:44:23.380Z,7.52
2023-07-23T03:45:25.641Z,7.73
2023-07-23T03:46:27.629Z,7.55
2023-07-23T03:47:29.702Z,7.61
2023-07-23T03:48:31.493Z,6.97
2023-07-23T03:49:33.457Z,7.45
2023-07-23T03:50:35.502Z,7.55
2023-07-23T03:51:37.350Z,7.16
2023-07-23T03:52:39.220Z,6.64
2023-07-23T03:53:41.259Z,7.20
2023-07-23T03:54:43.139Z,7.39
2023-07-23T03:55:45.057Z,7.82
2023-07-23T03:56:47.012Z,6.72
2023-07-23T03:57:48.962Z,7.64
2023-07-23T03:58:50.817Z,7.47
2023-07-23T03:59:52.763Z,7.62
2023-07-23T04:00:54.718Z,7.67
2023-07-23T04:01:56.671Z,7.45
2023-07-23T04:02:58.638Z,7.37
2023-07-23T04:04:00.606Z,8.26
2023-07-23T04:05:02.632Z,8.09
2023-07-23T04:06:04.890Z,8.41
2023-07-23T04:07:06.848Z,8.31
2023-07-23T04:08:08.692Z,8.06
2023-07-23T04:09:10.436Z,8.65
2023-07-23T04:10:12.707Z,8.66
2023-07-23T04:11:14.551Z,7.89
2023-07-23T04:12:16.604Z,8.01
2023-07-23T04:13:18.551Z,8.71
2023-07-23T04:14:20.514Z,8.55
2023-07-23T04:15:22.489Z,8.60
2023-07-23T04:16:24.441Z,9.21
2023-07-23T04:17:26.427Z,9.55
2023-07-23T04:18:28.623Z,9.18
2023-07-23T04:19:30.606Z,9.77
2023-07-23T04:20:32.640Z,9.33
2023-07-23T04:21:34.485Z,9.43
2023-07-23T04:22:36.329Z,10.19
2023-07-23T04:23:38.679Z,8.41
2023-07-23T04:24:42.478Z,9.59
2023-07-23T04:25:44.448Z,9.69
2023-07-23T04:26:46.503Z,8.82
2023-07-23T04:27:48.563Z,9.43
2023-07-23T04:28:50.610Z,8.84
2023-07-23T04:29:52.473Z,9.60
2023-07-23T04:30:54.512Z,8.93
2023-07-23T04:31:56.470Z,10.39
2023-07-23T04:32:58.470Z,10.32
2023-07-23T04:34:00.472Z,9.56
2023-07-23T04:35:02.266Z,10.17
2023-07-23T04:36:04.404Z,11.43
2023-07-23T04:37:06.356Z,10.88
2023-07-23T04:38:08.285Z,10.88
2023-07-23T04:39:10.130Z,11.11
2023-07-23T04:40:12.286Z,11.26
2023-07-23T04:41:14.259Z,11.21
2023-07-23T04:42:16.208Z,11.75
2023-07-23T04:43:18.042Z,11.48
2023-07-23T04:44:19.896Z,11.79
2023-07-23T04:45:21.844Z,11.43
2023-07-23T04:46:23.818Z,11.55
2023-07-23T04:47:25.881Z,13.04
2023-07-23T04:48:27.915Z,12.56
2023-07-23T04:49:29.767Z,12.43
2023-07-23T04:50:31.712Z,11.67
2023-07-23T04:51:33.661Z,11.45
2023-07-23T04:52:35.625Z,12.64
2023-07-23T04:53:37.571Z,12.72
2023-07-23T04:54:39.521Z,13.12
2023-07-23T04:55:41.478Z,12.41
2023-07-23T04:56:43.423Z,12.61
2023-07-23T04:57:45.375Z,12.05
2023-07-23T04:58:47.338Z,12.09
2023-07-23T04:59:49.182Z,11.11
2023-07-23T05:00:51.162Z,11.87
2023-07-23T05:01:53.082Z,12.42
2023-07-23T05:02:55.076Z,12.70
2023-07-23T05:03:57.168Z,12.27
2023-07-23T05:04:59.053Z,12.83
2023-07-23T05:06:00.889Z,11.94
2023-07-23T05:07:02.844Z,12.11
2023-07-23T05:08:04.859Z,13.01
2023-07-23T05:09:06.767Z,12.24
2023-07-23T05:10:09.842Z,10.94
2023-07-23T05:11:12.195Z,12.77
2023-07-23T05:12:14.252Z,11.80
2023-07-23T05:13:16.214Z,12.13
2023-07-23T05:14:18.164Z,12.05
2023-07-23T05:15:20.102Z,11.41
2023-07-23T05:16:21.956Z,11.19
2023-07-23T05:17:23.948Z,11.94
2023-07-23T05:18:25.851Z,11.58
2023-07-23T05:19:27.817Z,10.95
2023-07-23T05:20:29.863Z,10.31
2023-07-23T05:21:31.913Z,12.07
2023-07-23T05:22:34.145Z,10.99
2023-07-23T05:23:36.155Z,12.07
2023-07-23T05:24:38.129Z,9.20
2023-07-23T05:25:40.038Z,8.41
2023-07-23T05:26:41.888Z,8.57
2023-07-23T05:27:43.837Z,8.14
2023-07-23T05:28:45.787Z,8.33
2023-07-23T05:29:47.645Z,8.07
2023-07-23T05:30:49.624Z,8.05
2023-07-23T05:31:51.654Z,8.59
2023-07-23T05:32:54.026Z,8.11
2023-07-23T05:33:55.959Z,8.21
2023-07-23T05:34:58.019Z,8.45
2023-07-23T05:35:59.865Z,8.36
2023-07-23T05:37:01.722Z,7.71
2023-07-23T05:38:03.668Z,8.28
2023-07-23T05:39:05.622Z,7.89
2023-07-23T05:40:07.781Z,8.04
2023-07-23T05:41:09.735Z,8.19
2023-07-23T05:42:11.688Z,8.02
2023-07-23T05:43:13.433Z,8.61
2023-07-23T05:44:15.394Z,8.11
2023-07-23T05:45:17.251Z,8.23
2023-07-23T05:46:19.110Z,8.03
2023-07-23T05:47:21.143Z,8.17
2023-07-23T05:48:22.998Z,8.15
2023-07-23T05:49:24.941Z,8.38
2023-07-23T05:50:26.893Z,7.46
2023-07-23T05:51:28.994Z,8.60
2023-07-23T05:52:31.312Z,8.25
2023-07-23T05:53:33.637Z,8.21
2023-07-23T05:54:38.499Z,8.16
2023-07-23T05:55:40.448Z,8.49
2023-07-23T05:56:42.536Z,8.41
2023-07-23T05:57:44.453Z,8.09
2023-07-23T05:58:46.305Z,7.90
2023-07-23T05:59:48.155Z,7.97
2023-07-23T06:00:50.264Z,8.21
2023-07-23T06:01:52.158Z,8.45
2023-07-23T06:02:54.231Z,8.36
2023-07-23T06:03:56.306Z,8.37
2023-07-23T06:04:58.133Z,8.35
2023-07-23T06:06:00.073Z,8.61
2023-07-23T06:07:02.027Z,8.34
2023-07-23T06:08:03.980Z,8.24
2023-07-23T06:09:06.504Z,8.42
2023-07-23T06:10:08.529Z,8.91
2023-07-23T06:11:10.446Z,8.65
2023-07-23T06:12:12.404Z,8.63
2023-07-23T06:13:14.250Z,8.60
2023-07-23T06:14:16.262Z,8.03
2023-07-23T06:15:18.188Z,8.79
2023-07-23T06:16:20.258Z,8.42
2023-07-23T06:17:22.315Z,8.42
2023-07-23T06:18:24.324Z,8.23
2023-07-23T06:19:26.274Z,7.49
2023-07-23T06:20:28.251Z,7.83
2023-07-23T06:21:30.524Z,7.99
2023-07-23T06:22:32.751Z,8.12
2023-07-23T06:23:34.606Z,8.19
2023-07-23T06:24:36.508Z,7.77
2023-07-23T06:25:38.406Z,7.81
2023-07-23T06:26:40.391Z,7.85
2023-07-23T06:27:42.201Z,7.83
2023-07-23T06:28:44.050Z,7.67
2023-07-23T06:29:46.037Z,7.40
2023-07-23T06:30:48.080Z,7.85
2023-07-23T06:31:50.253Z,7.84
2023-07-23T06:32:52.331Z,7.57
2023-07-23T06:33:54.325Z,7.73
2023-07-23T06:34:56.177Z,7.81
2023-07-23T06:35:58.140Z,7.53
2023-07-23T06:37:00.127Z,8.09
2023-07-23T06:38:02.034Z,7.81
2023-07-23T06:39:03.988Z,7.29
2023-07-23T06:40:06.157Z,8.21
2023-07-23T06:41:08.111Z,8.18
2023-07-23T06:42:10.059Z,8.15
2023-07-23T06:43:12.010Z,7.23
2023-07-23T06:44:13.956Z,6.86
2023-07-23T06:45:15.814Z,7.33
2023-07-23T06:46:17.807Z,7.53
2023-07-23T06:47:19.715Z,7.62
2023-07-23T06:48:21.598Z,7.77
2023-07-23T06:49:23.522Z,7.44
2023-07-23T06:50:25.507Z,7.29
2023-07-23T06:51:27.782Z,7.56
2023-07-23T06:52:29.997Z,7.79
2023-07-23T06:53:31.842Z,7.48
2023-07-23T06:54:33.896Z,7.51
2023-07-23T06:55:35.854Z,8.38
2023-07-23T06:56:37.909Z,7.61
2023-07-23T06:57:39.849Z,7.25
2023-07-23T06:58:41.902Z,8.09
2023-07-23T06:59:43.748Z,8.09
2023-07-23T07:00:45.914Z,7.11
2023-07-23T07:01:48.031Z,7.50
2023-07-23T07:02:50.077Z,7.56
2023-07-23T07:03:52.203Z,7.79
2023-07-23T07:04:54.235Z,7.27
2023-07-23T07:05:56.195Z,8.33
2023-07-23T07:06:58.437Z,7.83
2023-07-23T07:08:00.398Z,7.58
2023-07-23T07:09:02.347Z,7.65
2023-07-23T07:10:04.401Z,7.53
2023-07-23T07:11:06.255Z,7.44
2023-07-23T07:12:08.207Z,7.35
2023-07-23T07:13:10.156Z,7.02
2023-07-23T07:14:12.107Z,7.04
2023-07-23T07:15:14.068Z,6.86
2023-07-23T07:16:16.126Z,6.91
2023-07-23T07:17:18.333Z,7.34
2023-07-23T07:18:20.329Z,6.85
2023-07-23T07:19:22.291Z,7.27
2023-07-23T07:20:24.359Z,7.18
2023-07-23T07:21:26.804Z,6.87
2023-07-23T07:22:28.971Z,7.59
2023-07-23T07:23:30.920Z,7.29
2023-07-23T07:24:34.182Z,7.19
2023-07-23T07:25:36.036Z,7.13
2023-07-23T07:26:38.295Z,7.21
2023-07-23T07:27:40.144Z,7.46
2023-07-23T07:28:42.111Z,6.76
2023-07-23T07:29:44.151Z,7.35
2023-07-23T07:30:46.104Z,6.93
2023-07-23T07:31:48.000Z,7.63
2023-07-23T07:32:50.074Z,7.25
2023-07-23T07:33:51.997Z,7.01
2023-07-23T07:34:53.849Z,6.85
2023-07-23T07:35:55.666Z,6.66
2023-07-23T07:36:57.616Z,7.16
2023-07-23T07:37:59.569Z,7.24
2023-07-23T07:39:01.931Z,6.97
2023-07-23T07:40:04.087Z,6.72
2023-07-23T07:41:06.083Z,13.74
2023-07-23T07:42:08.009Z,17.49
2023-07-23T07:43:09.950Z,10.75
2023-07-23T07:44:11.823Z,8.24
2023-07-23T07:45:13.767Z,20.99
2023-07-23T07:46:15.919Z,13.85
2023-07-23T07:47:17.861Z,9.17
2023-07-23T07:48:19.709Z,12.37
2023-07-23T07:49:21.663Z,11.87
2023-07-23T07:50:23.694Z,8.95
2023-07-23T07:51:25.629Z,8.31
2023-07-23T07:52:27.637Z,8.03
2023-07-23T07:53:29.574Z,8.13
2023-07-23T07:54:31.503Z,8.45
2023-07-23T07:55:33.372Z,8.22
2023-07-23T07:56:35.348Z,8.26
2023-07-23T07:57:37.394Z,8.33
2023-07-23T07:58:39.359Z,8.62
2023-07-23T07:59:41.346Z,7.85
2023-07-23T08:00:43.401Z,9.19
2023-07-23T08:01:46.451Z,11.62
2023-07-23T08:02:48.698Z,13.29
2023-07-23T08:03:51.004Z,11.04
2023-07-23T08:04:56.358Z,9.31
2023-07-23T08:05:56.828Z,9.44
2023-07-23T08:06:58.851Z,10.76
2023-07-23T08:08:00.698Z,11.57
2023-07-23T08:09:02.551Z,11.15
2023-07-23T08:10:04.608Z,9.63
2023-07-23T08:11:06.753Z,9.59
2023-07-23T08:12:08.609Z,9.25
2023-07-23T08:13:10.561Z,10.34
2023-07-23T08:14:12.421Z,10.32
2023-07-23T08:15:14.476Z,10.33
2023-07-23T08:16:16.519Z,11.08
2023-07-23T08:17:18.477Z,10.51
2023-07-23T08:18:20.428Z,10.51
2023-07-23T08:19:22.215Z,10.36
2023-07-23T08:20:24.131Z,9.85
2023-07-23T08:21:26.315Z,11.27
2023-07-23T08:22:28.446Z,11.42
2023-07-23T08:23:30.299Z,10.56
2023-07-23T08:24:32.202Z,10.85
2023-07-23T08:25:34.312Z,11.00
2023-07-23T08:26:36.274Z,11.09
2023-07-23T08:27:38.316Z,10.91
2023-07-23T08:28:40.212Z,10.95
2023-07-23T08:29:42.223Z,10.35
2023-07-23T08:30:44.379Z,10.65
2023-07-23T08:31:46.375Z,11.39
2023-07-23T08:32:48.334Z,11.54
2023-07-23T08:33:50.291Z,12.18
2023-07-23T08:34:54.349Z,11.83
2023-07-23T08:35:55.974Z,11.79
2023-07-23T08:36:57.938Z,11.67
2023-07-23T08:37:59.883Z,11.13
2023-07-23T08:39:01.735Z,12.26
2023-07-23T08:40:03.791Z,11.46
2023-07-23T08:41:05.745Z,11.50
2023-07-23T08:42:07.593Z,11.56
2023-07-23T08:43:09.453Z,12.53
2023-07-23T08:44:11.393Z,12.55
2023-07-23T08:45:13.251Z,12.03
2023-07-23T08:46:15.326Z,12.03
2023-07-23T08:47:17.373Z,13.07
2023-07-23T08:48:19.434Z,13.00
2023-07-23T08:49:21.373Z,12.33
2023-07-23T08:50:23.418Z,12.99
2023-07-23T08:51:25.382Z,13.20
2023-07-23T08:52:27.318Z,13.25
2023-07-23T08:53:29.178Z,14.75
2023-07-23T08:54:31.123Z,13.59
2023-07-23T08:55:33.179Z,14.49
2023-07-23T08:56:35.344Z,15.38
2023-07-23T08:57:37.389Z,15.01
2023-07-23T08:58:39.354Z,16.55
2023-07-23T08:59:41.393Z,16.87
2023-07-23T09:00:43.250Z,16.35
2023-07-23T09:01:45.241Z,16.01
2023-07-23T09:02:48.534Z,16.29
2023-07-23T09:03:50.533Z,16.94
2023-07-23T09:04:52.522Z,16.92
2023-07-23T09:05:54.539Z,17.03
2023-07-23T09:06:56.595Z,17.14
2023-07-23T09:07:58.552Z,17.39
2023-07-23T09:09:00.402Z,18.05
2023-07-23T09:10:02.450Z,17.43
2023-07-23T09:11:04.399Z,17.09
2023-07-23T09:12:06.260Z,17.38
2023-07-23T09:13:08.231Z,17.81
2023-07-23T09:14:10.168Z,16.92
2023-07-23T09:15:12.113Z,17.00
2023-07-23T09:16:14.195Z,16.99
2023-07-23T09:17:16.225Z,15.85
2023-07-23T09:18:18.174Z,15.79
2023-07-23T09:19:20.136Z,15.77
2023-07-23T09:20:22.094Z,15.41
2023-07-23T09:21:24.157Z,14.99
2023-07-23T09:22:26.209Z,14.21
2023-07-23T09:23:28.147Z,13.86
2023-07-23T09:24:30.128Z,14.49
2023-07-23T09:25:32.048Z,13.90
2023-07-23T09:26:33.997Z,13.64
2023-07-23T09:27:36.059Z,13.79
2023-07-23T09:28:38.113Z,14.16
2023-07-23T09:29:39.958Z,12.96
2023-07-23T09:30:41.956Z,14.02
2023-07-23T09:31:43.866Z,13.81
2023-07-23T09:32:49.772Z,12.99
2023-07-23T09:33:49.813Z,13.60
2023-07-23T09:34:52.078Z,13.67
2023-07-23T09:35:54.130Z,13.79
2023-07-23T09:36:56.291Z,13.20
2023-07-23T09:37:58.360Z,13.45
2023-07-23T09:39:00.428Z,12.88
2023-07-23T09:40:02.465Z,12.20
2023-07-23T09:41:04.512Z,11.91
2023-07-23T09:42:06.913Z,12.45
2023-07-23T09:43:08.825Z,12.36
2023-07-23T09:44:10.805Z,12.62
2023-07-23T09:45:12.837Z,12.31
2023-07-23T09:46:14.793Z,12.64
2023-07-23T09:47:16.840Z,12.18
2023-07-23T09:48:18.761Z,11.43
2023-07-23T09:49:20.662Z,11.03
2023-07-23T09:50:22.697Z,11.62
2023-07-23T09:51:24.610Z,11.27
2023-07-23T09:52:26.602Z,11.17
2023-07-23T09:53:28.555Z,10.67
2023-07-23T09:54:30.610Z,11.35
2023-07-23T09:55:32.566Z,10.63
2023-07-23T09:56:34.508Z,10.98
2023-07-23T09:57:36.475Z,10.64
2023-07-23T09:58:38.518Z,10.83
2023-07-23T09:59:40.884Z,9.95
2023-07-23T10:00:42.861Z,9.75
2023-07-23T10:01:44.912Z,9.26
2023-07-23T10:02:47.011Z,9.38
2023-07-23T10:03:48.998Z,10.56
2023-07-23T10:04:50.852Z,9.63
2023-07-23T10:05:52.930Z,9.43
2023-07-23T10:06:54.964Z,9.29
2023-07-23T10:07:56.911Z,8.96
2023-07-23T10:08:58.717Z,8.82
2023-07-23T10:10:00.573Z,8.72
2023-07-23T10:11:02.464Z,8.86
2023-07-23T10:12:04.311Z,8.77
2023-07-23T10:13:06.291Z,7.95
2023-07-23T10:14:08.217Z,8.15
2023-07-23T10:15:10.075Z,7.51
2023-07-23T10:16:12.240Z,7.45
2023-07-23T10:17:14.183Z,8.41
2023-07-23T10:18:16.101Z,7.64
2023-07-23T10:19:18.396Z,6.81
2023-07-23T10:20:20.349Z,6.36
2023-07-23T10:21:22.401Z,6.77
2023-07-23T10:22:24.771Z,6.98
2023-07-23T10:23:26.755Z,6.90
2023-07-23T10:24:28.682Z,6.86
2023-07-23T10:25:32.197Z,7.06
2023-07-23T10:26:34.409Z,7.24
2023-07-23T10:27:36.260Z,7.04
2023-07-23T10:28:38.007Z,6.86
2023-07-23T10:29:39.862Z,6.85
2023-07-23T10:30:41.852Z,7.16
2023-07-23T10:31:43.990Z,6.53
2023-07-23T10:32:46.096Z,6.68
2023-07-23T10:33:47.970Z,6.61
2023-07-23T10:34:50.037Z,5.68
2023-07-23T10:35:52.264Z,5.49
2023-07-23T10:36:54.342Z,5.71
2023-07-23T10:37:56.198Z,5.80
2023-07-23T10:38:58.144Z,5.60
2023-07-23T10:39:59.997Z,6.09
2023-07-23T10:41:01.952Z,5.65
2023-07-23T10:42:03.906Z,6.41
2023-07-23T10:43:05.872Z,5.89
2023-07-23T10:44:07.810Z,6.30
2023-07-23T10:45:09.651Z,6.44
2023-07-23T10:46:11.766Z,5.92
2023-07-23T10:47:13.766Z,6.14
2023-07-23T10:48:15.615Z,5.49
2023-07-23T10:49:17.782Z,5.46
2023-07-23T10:50:19.732Z,5.32
2023-07-23T10:51:21.787Z,5.83
2023-07-23T10:52:23.748Z,5.79
2023-07-23T10:53:25.475Z,5.49
2023-07-23T10:54:27.473Z,6.65
2023-07-23T10:55:29.390Z,6.39
2023-07-23T10:56:31.442Z,6.69
2023-07-23T10:57:33.194Z,6.25
2023-07-23T10:58:35.240Z,6.77
2023-07-23T10:59:37.197Z,6.94
2023-07-23T11:00:39.148Z,6.87
2023-07-23T11:01:41.123Z,6.07
2023-07-23T11:02:43.103Z,6.17
2023-07-23T11:03:45.203Z,6.18
2023-07-23T11:04:47.180Z,6.11
2023-07-23T11:05:49.004Z,6.22
2023-07-23T11:06:51.273Z,6.14
2023-07-23T11:07:53.248Z,6.75
2023-07-23T11:08:55.072Z,6.76
2023-07-23T11:09:56.831Z,6.76
2023-07-23T11:11:00.913Z,6.33
2023-07-23T11:12:02.565Z,6.69
2023-07-23T11:13:04.555Z,6.41
2023-07-23T11:14:06.469Z,6.29
2023-07-23T11:15:08.320Z,6.87
2023-07-23T11:16:10.438Z,6.23
2023-07-23T11:17:12.326Z,5.98
2023-07-23T11:18:14.288Z,6.59
2023-07-23T11:19:16.229Z,6.51
2023-07-23T11:20:18.192Z,6.12
2023-07-23T11:21:20.458Z,6.48
2023-07-23T11:22:22.398Z,6.21
2023-07-23T11:23:24.537Z,6.41
2023-07-23T11:24:26.648Z,6.02
2023-07-23T11:25:28.664Z,5.94
2023-07-23T11:26:30.633Z,6.11
2023-07-23T11:27:32.474Z,5.82
2023-07-23T11:28:34.825Z,6.08
2023-07-23T11:29:36.884Z,6.35
2023-07-23T11:30:38.845Z,6.27
2023-07-23T11:31:40.846Z,5.87
2023-07-23T11:32:42.910Z,6.11
2023-07-23T11:33:44.935Z,6.17
2023-07-23T11:34:46.950Z,5.47
2023-07-23T11:35:48.904Z,5.49
2023-07-23T11:36:51.059Z,5.09
2023-07-23T11:37:52.936Z,5.35
2023-07-23T11:38:54.900Z,6.73
2023-07-23T11:39:56.924Z,7.24
2023-07-23T11:40:58.870Z,5.16
2023-07-23T11:42:00.919Z,5.16
2023-07-23T11:43:02.893Z,4.88
2023-07-23T11:44:04.848Z,4.62
2023-07-23T11:45:06.896Z,4.55
2023-07-23T11:46:09.070Z,4.95
2023-07-23T11:47:11.002Z,4.36
2023-07-23T11:48:13.270Z,4.45
2023-07-23T11:49:15.222Z,4.71
2023-07-23T11:50:17.261Z,4.92
2023-07-23T11:51:19.214Z,4.57
2023-07-23T11:52:21.190Z,4.82
2023-07-23T11:53:23.229Z,5.44
2023-07-23T11:54:25.071Z,6.46
2023-07-23T11:55:27.043Z,5.65
2023-07-23T11:56:29.181Z,5.49
2023-07-23T11:57:31.109Z,5.47
2023-07-23T11:58:32.983Z,14.56
2023-07-23T11:59:34.942Z,12.78
2023-07-23T12:00:37.002Z,6.23
2023-07-23T12:01:40.142Z,8.04
2023-07-23T12:04:09.513Z,11.33
2023-07-23T12:05:11.326Z,5.83
2023-07-23T12:06:13.382Z,5.81
2023-07-23T12:07:15.350Z,6.95
2023-07-23T12:08:17.287Z,8.45
2023-07-23T12:09:19.245Z,8.49
2023-07-23T12:10:21.412Z,6.03
2023-07-23T12:11:23.635Z,6.19
2023-07-23T12:12:26.131Z,5.54
2023-07-23T12:13:28.192Z,5.49
2023-07-23T12:14:31.266Z,5.25
2023-07-23T12:15:33.222Z,5.86
2023-07-23T12:16:35.397Z,8.32
2023-07-23T12:17:37.438Z,5.14
2023-07-23T12:18:48.936Z,5.87
2023-07-23T12:19:43.209Z,5.52
2023-07-23T12:20:45.554Z,4.89
2023-07-23T12:21:47.538Z,4.97
2023-07-23T12:22:49.334Z,4.49
2023-07-23T12:23:51.294Z,6.71
2023-07-23T12:24:53.309Z,9.32
2023-07-23T12:25:57.150Z,7.74
2023-07-23T12:26:59.183Z,4.70
2023-07-23T12:28:01.338Z,5.03
2023-07-23T12:29:03.712Z,4.70
2023-07-23T12:30:06.291Z,4.90
2023-07-23T12:31:08.361Z,4.56
2023-07-23T12:32:10.506Z,4.77
2023-07-23T12:33:12.569Z,5.51
2023-07-23T12:34:14.647Z,5.20
2023-07-23T12:35:16.557Z,5.00
2023-07-23T12:36:18.599Z,5.17
2023-07-23T12:37:20.571Z,4.97
2023-07-23T12:38:22.542Z,5.19
2023-07-23T12:39:24.458Z,5.63
2023-07-23T12:40:26.412Z,6.05
2023-07-23T12:41:28.357Z,7.18
2023-07-23T12:42:30.207Z,6.58
2023-07-23T12:43:32.171Z,6.88
2023-07-23T12:44:34.115Z,6.77
2023-07-23T12:45:35.984Z,6.09
2023-07-23T12:46:38.028Z,6.19
2023-07-23T12:47:39.891Z,7.75
2023-07-23T12:48:41.921Z,7.14
2023-07-23T12:49:43.779Z,7.78
2023-07-23T12:50:45.828Z,7.32
2023-07-23T12:51:47.675Z,6.73
2023-07-23T12:52:49.628Z,6.03
2023-07-23T12:53:51.582Z,6.60
2023-07-23T12:54:53.566Z,6.83
2023-07-23T12:55:55.586Z,7.59
2023-07-23T12:56:57.640Z,8.11
2023-07-23T12:57:59.599Z,9.19
2023-07-23T12:59:01.553Z,8.51
2023-07-23T13:00:03.606Z,7.67
2023-07-23T13:01:05.562Z,7.57
2023-07-23T13:02:07.518Z,9.17
2023-07-23T13:03:10.669Z,9.34
2023-07-23T13:04:12.813Z,9.34
2023-07-23T13:05:14.804Z,9.58
2023-07-23T13:06:16.754Z,8.78
2023-07-23T13:07:18.740Z,8.00
2023-07-23T13:08:20.666Z,7.97
2023-07-23T13:09:22.611Z,7.61
2023-07-23T13:10:24.902Z,7.85
2023-07-23T13:11:26.821Z,8.67
2023-07-23T13:12:28.674Z,8.85
2023-07-23T13:13:30.629Z,10.32
2023-07-23T13:14:32.490Z,11.84
2023-07-23T13:15:34.532Z,13.01
2023-07-23T13:16:36.500Z,14.52
2023-07-23T13:17:38.621Z,13.62
2023-07-23T13:18:40.824Z,13.93
2023-07-23T13:19:42.752Z,11.48
2023-07-23T13:20:44.711Z,12.13
2023-07-23T13:21:46.778Z,12.35
2023-07-23T13:22:48.723Z,11.05
2023-07-23T13:23:50.765Z,11.56
2023-07-23T13:24:52.657Z,14.45
2023-07-23T13:25:54.672Z,11.23
2023-07-23T13:26:56.725Z,14.71
2023-07-23T13:27:58.577Z,10.99
2023-07-23T13:29:00.540Z,11.42
2023-07-23T13:30:02.588Z,12.02
2023-07-23T13:31:04.625Z,12.10
2023-07-23T13:32:06.429Z,11.51
2023-07-23T13:33:10.201Z,11.25
2023-07-23T13:34:11.828Z,13.82
2023-07-23T13:35:13.788Z,14.11
2023-07-23T13:36:15.738Z,12.41
2023-07-23T13:37:17.685Z,11.80
2023-07-23T13:38:19.734Z,12.89
2023-07-23T13:39:21.699Z,13.14